Terminal Aerodrome Forecast
Issued by NWS

Current Version | Previous Version | Graphics & Text | Print | Product List | Glossary On
Versions: 1 2 3 4 5 6 7 8 9 10 11 12 13 14 15 16 17 18 19
000
FTUS41 KILN 301100
TAFLCK
TAF
KLCK 301134Z 3012/0112 26005KT P6SM SCT040
     FM301400 30010KT P6SM -SHRA OVC025
     FM301600 32010KT P6SM VCSH BKN018
     FM302200 35008KT P6SM SCT025
     FM010000 02004KT P6SM SCT250=

USA.gov is the U.S. government's official web portal to all federal, state and local government web resources and services.